sensor_id;sensor_type;location;lat;lon;timestamp;pressure;altitude;pressure_sealevel;temperature;humidity
75219;BME280;63801;49.414;19.474;2023-04-06T00:00:50;93871.88;;;-1.39;59.66
75219;BME280;63801;49.414;19.474;2023-04-06T00:02:50;93867.13;;;-1.42;59.60
75219;BME280;63801;49.414;19.474;2023-04-06T00:04:52;93872.44;;;-1.47;59.71
75219;BME280;63801;49.414;19.474;2023-04-06T00:06:52;93866.66;;;-1.54;59.64
75219;BME280;63801;49.414;19.474;2023-04-06T00:08:52;93855.59;;;-1.61;59.76
75219;BME280;63801;49.414;19.474;2023-04-06T00:10:53;93861.69;;;-1.65;59.88
75219;BME280;63801;49.414;19.474;2023-04-06T00:12:54;93856.97;;;-1.73;59.96
75219;BME280;63801;49.414;19.474;2023-04-06T00:14:54;93846.69;;;-1.90;60.15
75219;BME280;63801;49.414;19.474;2023-04-06T00:16:55;93859.38;;;-1.87;60.26
75219;BME280;63801;49.414;19.474;2023-04-06T00:18:55;93857.78;;;-1.93;60.56
75219;BME280;63801;49.414;19.474;2023-04-06T00:20:56;93857.28;;;-2.00;60.22
75219;BME280;63801;49.414;19.474;2023-04-06T00:22:56;93855.19;;;-2.08;60.38
75219;BME280;63801;49.414;19.474;2023-04-06T00:24:57;93854.41;;;-2.14;60.49
75219;BME280;63801;49.414;19.474;2023-04-06T00:26:57;93849.13;;;-2.19;60.56
75219;BME280;63801;49.414;19.474;2023-04-06T00:28:57;93852.56;;;-2.23;60.72
75219;BME280;63801;49.414;19.474;2023-04-06T00:30:59;93844.16;;;-2.31;60.83
75219;BME280;63801;49.414;19.474;2023-04-06T00:32:59;93846.25;;;-2.38;60.60
75219;BME280;63801;49.414;19.474;2023-04-06T00:35:03;93848.38;;;-2.40;60.80
75219;BME280;63801;49.414;19.474;2023-04-06T00:37:03;93848.09;;;-2.43;60.91
75219;BME280;63801;49.414;19.474;2023-04-06T00:39:04;93844.69;;;-2.49;60.98
75219;BME280;63801;49.414;19.474;2023-04-06T00:41:04;93843.09;;;-2.50;61.36
75219;BME280;63801;49.414;19.474;2023-04-06T00:43:08;93843.63;;;-2.53;61.57
75219;BME280;63801;49.414;19.474;2023-04-06T00:45:11;93842.06;;;-2.54;61.83
75219;BME280;63801;49.414;19.474;2023-04-06T00:47:11;93842.59;;;-2.57;61.71
75219;BME280;63801;49.414;19.474;2023-04-06T00:49:12;93838.91;;;-2.66;62.30
75219;BME280;63801;49.414;19.474;2023-04-06T00:51:12;93847.84;;;-2.67;61.98
75219;BME280;63801;49.414;19.474;2023-04-06T00:53:13;93840.47;;;-2.75;62.02
75219;BME280;63801;49.414;19.474;2023-04-06T00:55:13;93842.06;;;-2.79;61.80
75219;BME280;63801;49.414;19.474;2023-04-06T00:57:14;93830.19;;;-2.97;62.00
75219;BME280;63801;49.414;19.474;2023-04-06T00:59:15;93846.28;;;-2.88;62.12
75219;BME280;63801;49.414;19.474;2023-04-06T01:01:15;93846.25;;;-2.93;62.15
75219;BME280;63801;49.414;19.474;2023-04-06T01:03:16;93847.31;;;-2.99;62.35
75219;BME280;63801;49.414;19.474;2023-04-06T01:05:16;93843.59;;;-3.03;62.71
75219;BME280;63801;49.414;19.474;2023-04-06T01:07:17;93837.81;;;-3.05;62.55
75219;BME280;63801;49.414;19.474;2023-04-06T01:09:17;93846.22;;;-3.08;62.60
75219;BME280;63801;49.414;19.474;2023-04-06T01:11:17;93846.75;;;-3.11;62.65
75219;BME280;63801;49.414;19.474;2023-04-06T01:13:18;93845.16;;;-3.12;62.48
75219;BME280;63801;49.414;19.474;2023-04-06T01:15:19;93845.41;;;-3.14;62.83
75219;BME280;63801;49.414;19.474;2023-04-06T01:17:20;93846.50;;;-3.15;63.01
75219;BME280;63801;49.414;19.474;2023-04-06T01:19:21;93845.69;;;-3.15;63.02
75219;BME280;63801;49.414;19.474;2023-04-06T01:21:22;93844.13;;;-3.17;63.37
75219;BME280;63801;49.414;19.474;2023-04-06T01:23:22;93840.41;;;-3.26;63.35
75219;BME280;63801;49.414;19.474;2023-04-06T01:25:22;93839.88;;;-3.18;63.52
75219;BME280;63801;49.414;19.474;2023-04-06T01:27:23;93846.19;;;-3.19;63.34
75219;BME280;63801;49.414;19.474;2023-04-06T01:29:25;93843.84;;;-3.20;63.69
75219;BME280;63801;49.414;19.474;2023-04-06T01:31:26;93847.00;;;-3.18;63.83
75219;BME280;63801;49.414;19.474;2023-04-06T01:33:27;93838.28;;;-3.19;63.91
75219;BME280;63801;49.414;19.474;2023-04-06T01:35:28;93843.56;;;-3.19;63.90
75219;BME280;63801;49.414;19.474;2023-04-06T01:37:28;93841.47;;;-3.17;63.97
75219;BME280;63801;49.414;19.474;2023-04-06T01:39:32;93831.97;;;-3.18;64.49
75219;BME280;63801;49.414;19.474;2023-04-06T01:41:32;93836.75;;;-3.14;64.32
75219;BME280;63801;49.414;19.474;2023-04-06T01:43:33;93839.38;;;-3.14;64.43
75219;BME280;63801;49.414;19.474;2023-04-06T01:45:33;93834.13;;;-3.14;64.57
75219;BME280;63801;49.414;19.474;2023-04-06T01:47:34;93831.47;;;-3.14;64.41
75219;BME280;63801;49.414;19.474;2023-04-06T01:49:35;93827.25;;;-3.15;64.45
75219;BME280;63801;49.414;19.474;2023-04-06T01:51:35;93818.78;;;-3.23;64.41
75219;BME280;63801;49.414;19.474;2023-04-06T01:53:35;93827.50;;;-3.17;64.40
75219;BME280;63801;49.414;19.474;2023-04-06T01:55:36;93818.00;;;-3.18;64.63
75219;BME280;63801;49.414;19.474;2023-04-06T01:57:36;93822.47;;;-3.19;64.54
75219;BME280;63801;49.414;19.474;2023-04-06T01:59:36;93820.94;;;-3.20;64.54
75219;BME280;63801;49.414;19.474;2023-04-06T02:01:37;93815.66;;;-3.20;64.73
75219;BME280;63801;49.414;19.474;2023-04-06T02:03:37;93807.19;;;-3.22;64.55
75219;BME280;63801;49.414;19.474;2023-04-06T02:05:37;93808.78;;;-3.21;64.83
75219;BME280;63801;49.414;19.474;2023-04-06T02:07:38;93816.69;;;-3.21;64.79
75219;BME280;63801;49.414;19.474;2023-04-06T02:09:38;93808.25;;;-3.23;64.85
75219;BME280;63801;49.414;19.474;2023-04-06T02:11:39;93809.31;;;-3.24;64.90
75219;BME280;63801;49.414;19.474;2023-04-06T02:13:39;93809.31;;;-3.24;64.95
75219;BME280;63801;49.414;19.474;2023-04-06T02:15:39;93798.75;;;-3.34;65.09
75219;BME280;63801;49.414;19.474;2023-04-06T02:17:41;93803.50;;;-3.26;64.91
75219;BME280;63801;49.414;19.474;2023-04-06T02:19:41;93809.03;;;-3.27;65.19
75219;BME280;63801;49.414;19.474;2023-04-06T02:21:42;93806.16;;;-3.26;65.40
75219;BME280;63801;49.414;19.474;2023-04-06T02:23:42;93798.78;;;-3.29;65.22
75219;BME280;63801;49.414;19.474;2023-04-06T02:25:43;93800.34;;;-3.28;65.35
75219;BME280;63801;49.414;19.474;2023-04-06T02:27:43;93807.19;;;-3.27;65.51
75219;BME280;63801;49.414;19.474;2023-04-06T02:29:43;93806.41;;;-3.27;65.19
75219;BME280;63801;49.414;19.474;2023-04-06T02:31:44;93805.09;;;-3.30;65.36
75219;BME280;63801;49.414;19.474;2023-04-06T02:33:44;93801.13;;;-3.32;65.41
75219;BME280;63801;49.414;19.474;2023-04-06T02:35:45;93783.97;;;-3.45;65.52
75219;BME280;63801;49.414;19.474;2023-04-06T02:37:46;93798.22;;;-3.36;65.65
75219;BME280;63801;49.414;19.474;2023-04-06T02:39:46;93804.81;;;-3.38;65.55
75219;BME280;63801;49.414;19.474;2023-04-06T02:41:47;93807.19;;;-3.37;65.58
75219;BME280;63801;49.414;19.474;2023-04-06T02:43:47;93811.91;;;-3.39;65.51
75219;BME280;63801;49.414;19.474;2023-04-06T02:45:47;93805.34;;;-3.41;65.68
75219;BME280;63801;49.414;19.474;2023-04-06T02:47:48;93806.63;;;-3.44;65.97
75219;BME280;63801;49.414;19.474;2023-04-06T02:49:48;93807.44;;;-3.43;65.88
75219;BME280;63801;49.414;19.474;2023-04-06T02:51:48;93803.47;;;-3.46;65.76
75219;BME280;63801;49.414;19.474;2023-04-06T02:53:49;93803.47;;;-3.46;65.91
75219;BME280;63801;49.414;19.474;2023-04-06T02:55:49;93806.13;;;-3.46;66.25
75219;BME280;63801;49.414;19.474;2023-04-06T02:57:49;93804.28;;;-3.45;66.18
75219;BME280;63801;49.414;19.474;2023-04-06T02:59:50;93806.13;;;-3.46;66.06
75219;BME280;63801;49.414;19.474;2023-04-06T03:01:50;93798.47;;;-3.47;65.92
75219;BME280;63801;49.414;19.474;2023-04-06T03:03:50;93795.03;;;-3.48;66.12
75219;BME280;63801;49.414;19.474;2023-04-06T03:05:51;93805.84;;;-3.44;65.98
75219;BME280;63801;49.414;19.474;2023-04-06T03:07:51;93812.94;;;-3.45;66.02
75219;BME280;63801;49.414;19.474;2023-04-06T03:09:52;93796.38;;;-3.45;66.15
75219;BME280;63801;49.414;19.474;2023-04-06T03:11:52;93807.19;;;-3.42;66.17
75219;BME280;63801;49.414;19.474;2023-04-06T03:13:52;93807.19;;;-3.42;66.22
75219;BME280;63801;49.414;19.474;2023-04-06T03:15:53;93807.44;;;-3.43;66.08
75219;BME280;63801;49.414;19.474;2023-04-06T03:17:53;93811.66;;;-3.42;66.48
75219;BME280;63801;49.414;19.474;2023-04-06T03:19:54;93813.25;;;-3.41;66.59
75219;BME280;63801;49.414;19.474;2023-04-06T03:21:54;93815.09;;;-3.42;66.37
75219;BME280;63801;49.414;19.474;2023-04-06T03:23:54;93816.66;;;-3.41;66.54
75219;BME280;63801;49.414;19.474;2023-04-06T03:25:55;93810.59;;;-3.41;66.52
75219;BME280;63801;49.414;19.474;2023-04-06T03:27:56;93821.41;;;-3.43;66.43
75219;BME280;63801;49.414;19.474;2023-04-06T03:29:56;93819.00;;;-3.44;66.57
75219;BME280;63801;49.414;19.474;2023-04-06T03:31:56;93815.84;;;-3.46;66.84
75219;BME280;63801;49.414;19.474;2023-04-06T03:33:57;93818.50;;;-3.46;66.78
75219;BME280;63801;49.414;19.474;2023-04-06T03:35:57;93821.38;;;-3.48;66.77
75219;BME280;63801;49.414;19.474;2023-04-06T03:37:57;93804.50;;;-3.52;66.68
75219;BME280;63801;49.414;19.474;2023-04-06T03:39:58;93818.22;;;-3.50;67.17
75219;BME280;63801;49.414;19.474;2023-04-06T03:41:58;93812.41;;;-3.52;66.83
75219;BME280;63801;49.414;19.474;2023-04-06T03:43:58;93806.59;;;-3.54;66.73
75219;BME280;63801;49.414;19.474;2023-04-06T03:45:59;93813.97;;;-3.56;67.01
75219;BME280;63801;49.414;19.474;2023-04-06T03:48:00;93811.88;;;-3.59;66.79
75219;BME280;63801;49.414;19.474;2023-04-06T03:50:00;93806.06;;;-3.61;66.87
75219;BME280;63801;49.414;19.474;2023-04-06T03:52:01;93810.28;;;-3.60;67.39
75219;BME280;63801;49.414;19.474;2023-04-06T03:54:01;93812.91;;;-3.60;67.00
75219;BME280;63801;49.414;19.474;2023-04-06T03:56:02;93819.22;;;-3.66;67.22
75219;BME280;63801;49.414;19.474;2023-04-06T03:58:02;93817.66;;;-3.62;67.09
75219;BME280;63801;49.414;19.474;2023-04-06T04:00:03;93816.59;;;-3.61;66.99
75219;BME280;63801;49.414;19.474;2023-04-06T04:02:04;93809.75;;;-3.62;66.92
75219;BME280;63801;49.414;19.474;2023-04-06T04:04:05;93812.91;;;-3.60;67.30
75219;BME280;63801;49.414;19.474;2023-04-06T04:06:05;93813.72;;;-3.59;67.13
75219;BME280;63801;49.414;19.474;2023-04-06T04:08:06;93820.56;;;-3.58;67.28
75219;BME280;63801;49.414;19.474;2023-04-06T04:10:07;93826.59;;;-3.58;67.09
75219;BME280;63801;49.414;19.474;2023-04-06T04:12:07;93829.00;;;-3.56;67.17
75219;BME280;63801;49.414;19.474;2023-04-06T04:14:07;93822.94;;;-3.57;67.37
75219;BME280;63801;49.414;19.474;2023-04-06T04:16:08;93825.03;;;-3.54;67.19
75219;BME280;63801;49.414;19.474;2023-04-06T04:18:08;93827.69;;;-3.54;67.39
75219;BME280;63801;49.414;19.474;2023-04-06T04:20:09;93829.81;;;-3.51;67.35
75219;BME280;63801;49.414;19.474;2023-04-06T04:22:09;93831.41;;;-3.50;67.44
75219;BME280;63801;49.414;19.474;2023-04-06T04:24:10;93826.41;;;-3.46;67.46
75219;BME280;63801;49.414;19.474;2023-04-06T04:26:10;93823.47;;;-3.45;67.43
75219;BME280;63801;49.414;19.474;2023-04-06T04:28:10;93825.06;;;-3.44;67.53
75219;BME280;63801;49.414;19.474;2023-04-06T04:30:11;93820.34;;;-3.42;67.57
75219;BME280;63801;49.414;19.474;2023-04-06T04:32:11;93825.34;;;-3.40;67.50
75219;BME280;63801;49.414;19.474;2023-04-06T04:34:12;93826.41;;;-3.36;67.33
75219;BME280;63801;49.414;19.474;2023-04-06T04:36:12;93824.06;;;-3.33;67.35
75219;BME280;63801;49.414;19.474;2023-04-06T04:38:13;93823.53;;;-3.30;67.06
75219;BME280;63801;49.414;19.474;2023-04-06T04:40:13;93816.16;;;-3.28;67.55
75219;BME280;63801;49.414;19.474;2023-04-06T04:42:13;93813.00;;;-3.25;67.53
75219;BME280;63801;49.414;19.474;2023-04-06T04:44:14;93823.56;;;-3.14;67.61
75219;BME280;63801;49.414;19.474;2023-04-06T04:46:15;93828.81;;;-3.09;67.67
75219;BME280;63801;49.414;19.474;2023-04-06T04:48:15;93826.75;;;-3.02;67.50
75219;BME280;63801;49.414;19.474;2023-04-06T04:50:15;93822.00;;;-2.95;67.59
75219;BME280;63801;49.414;19.474;2023-04-06T04:52:16;93809.34;;;-2.98;67.58
75219;BME280;63801;49.414;19.474;2023-04-06T04:54:16;93824.09;;;-2.82;67.52
75219;BME280;63801;49.414;19.474;2023-04-06T04:56:16;93819.38;;;-2.75;67.88
75219;BME280;63801;49.414;19.474;2023-04-06T04:58:17;93822.28;;;-2.66;67.55
75219;BME280;63801;49.414;19.474;2023-04-06T05:00:19;93812.47;;;-2.61;67.34
75219;BME280;63801;49.414;19.474;2023-04-06T05:02:20;93808.78;;;-2.55;67.51
75219;BME280;63801;49.414;19.474;2023-04-06T05:04:22;93802.47;;;-2.49;67.35
75219;BME280;63801;49.414;19.474;2023-04-06T05:06:22;93811.94;;;-2.38;67.55
75219;BME280;63801;49.414;19.474;2023-04-06T05:08:23;93796.91;;;-2.37;67.45
75219;BME280;63801;49.414;19.474;2023-04-06T05:10:23;93813.50;;;-2.21;67.35
75219;BME280;63801;49.414;19.474;2023-04-06T05:12:24;93813.75;;;-2.13;67.12
75219;BME280;63801;49.414;19.474;2023-04-06T05:14:28;93815.03;;;-2.05;67.12
75219;BME280;63801;49.414;19.474;2023-04-06T05:16:28;93810.78;;;-1.96;66.95
75219;BME280;63801;49.414;19.474;2023-04-06T05:18:28;93812.09;;;-1.89;66.86
75219;BME280;63801;49.414;19.474;2023-04-06T05:20:30;93812.59;;;-1.82;66.73
75219;BME280;63801;49.414;19.474;2023-04-06T05:22:31;93812.06;;;-1.78;66.65
75219;BME280;63801;49.414;19.474;2023-04-06T05:24:31;93800.94;;;-1.75;66.50
75219;BME280;63801;49.414;19.474;2023-04-06T05:26:31;93803.00;;;-1.62;66.17
75219;BME280;63801;49.414;19.474;2023-04-06T05:28:32;93808.50;;;-1.54;66.50
75219;BME280;63801;49.414;19.474;2023-04-06T05:30:32;93806.88;;;-1.45;66.25
75219;BME280;63801;49.414;19.474;2023-04-06T05:32:33;93806.28;;;-1.37;66.08
75219;BME280;63801;49.414;19.474;2023-04-06T05:34:34;93813.13;;;-1.25;65.70
75219;BME280;63801;49.414;19.474;2023-04-06T05:36:35;93796.69;;;-1.17;66.07
75219;BME280;63801;49.414;19.474;2023-04-06T05:38:35;93806.88;;;-1.01;65.74
75219;BME280;63801;49.414;19.474;2023-04-06T05:40:37;93800.50;;;-0.95;65.32
75219;BME280;63801;49.414;19.474;2023-04-06T05:42:39;93806.50;;;-0.84;65.13
75219;BME280;63801;49.414;19.474;2023-04-06T05:44:39;93803.31;;;-0.81;64.88
75219;BME280;63801;49.414;19.474;2023-04-06T05:46:40;93804.34;;;-0.77;64.39
75219;BME280;63801;49.414;19.474;2023-04-06T05:48:40;93806.94;;;-0.72;64.67
75219;BME280;63801;49.414;19.474;2023-04-06T05:50:40;93807.66;;;-0.66;64.42
75219;BME280;63801;49.414;19.474;2023-04-06T05:52:41;93807.38;;;-0.60;64.70
75219;BME280;63801;49.414;19.474;2023-04-06T05:54:43;93799.38;;;-0.55;64.42
75219;BME280;63801;49.414;19.474;2023-04-06T05:56:43;93806.78;;;-0.52;64.14
75219;BME280;63801;49.414;19.474;2023-04-06T05:58:44;93810.44;;;-0.48;64.06
75219;BME280;63801;49.414;19.474;2023-04-06T06:00:44;93800.88;;;-0.43;63.74
75219;BME280;63801;49.414;19.474;2023-04-06T06:02:46;93813.56;;;-0.40;63.78
75219;BME280;63801;49.414;19.474;2023-04-06T06:04:46;93803.69;;;-0.35;63.40
75219;BME280;63801;49.414;19.474;2023-04-06T06:06:46;93801.31;;;-0.31;63.40
75219;BME280;63801;49.414;19.474;2023-04-06T06:08:47;93795.72;;;-0.30;63.29
75219;BME280;63801;49.414;19.474;2023-04-06T06:10:47;93798.53;;;-0.21;63.14
75219;BME280;63801;49.414;19.474;2023-04-06T06:12:49;93804.50;;;-0.06;63.34
75219;BME280;63801;49.414;19.474;2023-04-06T06:14:54;93783.75;;;0.02;63.20
75219;BME280;63801;49.414;19.474;2023-04-06T06:16:55;93793.03;;;0.23;63.19
75219;BME280;63801;49.414;19.474;2023-04-06T06:18:55;93797.31;;;0.42;63.16
75219;BME280;63801;49.414;19.474;2023-04-06T06:20:56;93794.72;;;0.61;62.75
75219;BME280;63801;49.414;19.474;2023-04-06T06:22:56;93798.44;;;0.79;62.96
75219;BME280;63801;49.414;19.474;2023-04-06T06:24:56;93791.25;;;0.98;62.43
75219;BME280;63801;49.414;19.474;2023-04-06T06:26:57;93793.06;;;1.21;61.89
75219;BME280;63801;49.414;19.474;2023-04-06T06:28:57;93790.56;;;1.44;61.84
75219;BME280;63801;49.414;19.474;2023-04-06T06:30:57;93788.22;;;1.88;61.41
75219;BME280;63801;49.414;19.474;2023-04-06T06:32:58;93791.72;;;2.30;60.65
75219;BME280;63801;49.414;19.474;2023-04-06T06:34:59;93773.56;;;2.59;60.17
75219;BME280;63801;49.414;19.474;2023-04-06T06:36:59;93795.78;;;3.04;59.17
75219;BME280;63801;49.414;19.474;2023-04-06T06:38:59;93798.44;;;3.40;58.09
75219;BME280;63801;49.414;19.474;2023-04-06T06:41:00;93794.25;;;3.70;58.12
75219;BME280;63801;49.414;19.474;2023-04-06T06:43:01;93798.81;;;4.00;57.18
75219;BME280;63801;49.414;19.474;2023-04-06T06:45:01;93798.28;;;3.89;56.28
75219;BME280;63801;49.414;19.474;2023-04-06T06:47:02;93796.34;;;3.59;56.27
75219;BME280;63801;49.414;19.474;2023-04-06T06:49:02;93795.25;;;3.38;56.41
75219;BME280;63801;49.414;19.474;2023-04-06T06:51:03;93792.28;;;3.17;56.77
75219;BME280;63801;49.414;19.474;2023-04-06T06:53:03;93800.13;;;3.00;56.66
75219;BME280;63801;49.414;19.474;2023-04-06T06:55:04;93796.97;;;2.84;56.50
75219;BME280;63801;49.414;19.474;2023-04-06T06:57:04;93799.56;;;2.62;57.07
75219;BME280;63801;49.414;19.474;2023-04-06T06:59:05;93803.81;;;2.63;57.35
75219;BME280;63801;49.414;19.474;2023-04-06T07:01:06;93798.72;;;3.02;57.50
75219;BME280;63801;49.414;19.474;2023-04-06T07:03:06;93793.94;;;3.27;57.19
75219;BME280;63801;49.414;19.474;2023-04-06T07:05:07;93794.19;;;3.39;56.54
75219;BME280;63801;49.414;19.474;2023-04-06T07:07:07;93792.38;;;3.70;56.00
75219;BME280;63801;49.414;19.474;2023-04-06T07:09:08;93793.78;;;3.76;55.40
75219;BME280;63801;49.414;19.474;2023-04-06T07:11:08;93795.03;;;3.70;55.75
75219;BME280;63801;49.414;19.474;2023-04-06T07:13:09;93796.22;;;3.86;56.17
75219;BME280;63801;49.414;19.474;2023-04-06T07:15:09;93795.53;;;4.03;55.04
75219;BME280;63801;49.414;19.474;2023-04-06T07:17:10;93796.06;;;4.14;54.85
75219;BME280;63801;49.414;19.474;2023-04-06T07:19:11;93798.09;;;4.17;54.17
75219;BME280;63801;49.414;19.474;2023-04-06T07:21:11;93796.44;;;3.98;54.27
75219;BME280;63801;49.414;19.474;2023-04-06T07:23:12;93789.47;;;3.58;54.03
75219;BME280;63801;49.414;19.474;2023-04-06T07:25:12;93796.09;;;3.25;54.00
75219;BME280;63801;49.414;19.474;2023-04-06T07:27:13;93800.03;;;2.91;54.57
75219;BME280;63801;49.414;19.474;2023-04-06T07:29:13;93789.16;;;2.65;54.69
75219;BME280;63801;49.414;19.474;2023-04-06T07:31:13;93789.63;;;2.40;55.05
75219;BME280;63801;49.414;19.474;2023-04-06T07:33:14;93792.09;;;2.23;55.02
75219;BME280;63801;49.414;19.474;2023-04-06T07:35:14;93792.28;;;2.13;55.57
75219;BME280;63801;49.414;19.474;2023-04-06T07:37:15;93786.88;;;2.04;55.35
75219;BME280;63801;49.414;19.474;2023-04-06T07:39:15;93792.88;;;1.96;55.88
75219;BME280;63801;49.414;19.474;2023-04-06T07:41:16;93794.22;;;1.80;55.44
75219;BME280;63801;49.414;19.474;2023-04-06T07:43:16;93800.19;;;1.58;55.37
75219;BME280;63801;49.414;19.474;2023-04-06T07:45:17;93792.59;;;1.33;55.44
75219;BME280;63801;49.414;19.474;2023-04-06T07:47:17;93798.81;;;1.10;55.45
75219;BME280;63801;49.414;19.474;2023-04-06T07:49:18;93799.28;;;0.93;55.51
75219;BME280;63801;49.414;19.474;2023-04-06T07:51:18;93798.72;;;0.77;55.95
75219;BME280;63801;49.414;19.474;2023-04-06T07:53:18;93793.00;;;0.70;56.27
75219;BME280;63801;49.414;19.474;2023-04-06T07:55:19;93799.22;;;0.61;56.28
75219;BME280;63801;49.414;19.474;2023-04-06T07:57:19;93790.03;;;0.53;56.31
75219;BME280;63801;49.414;19.474;2023-04-06T07:59:20;93799.13;;;0.47;56.37
75219;BME280;63801;49.414;19.474;2023-04-06T08:01:20;93808.50;;;0.39;56.40
75219;BME280;63801;49.414;19.474;2023-04-06T08:03:20;93808.66;;;0.24;56.28
75219;BME280;63801;49.414;19.474;2023-04-06T08:05:24;93792.44;;;0.07;56.61
75219;BME280;63801;49.414;19.474;2023-04-06T08:07:25;93797.00;;;0.02;57.03
75219;BME280;63801;49.414;19.474;2023-04-06T08:09:25;93793.53;;;0.01;56.91
75219;BME280;63801;49.414;19.474;2023-04-06T08:11:26;93793.59;;;-0.04;57.32
75219;BME280;63801;49.414;19.474;2023-04-06T08:13:27;93801.63;;;-0.09;57.17
75219;BME280;63801;49.414;19.474;2023-04-06T08:15:28;93806.41;;;-0.11;57.42
75219;BME280;63801;49.414;19.474;2023-04-06T08:17:28;93800.03;;;-0.10;57.50
75219;BME280;63801;49.414;19.474;2023-04-06T08:19:30;93801.88;;;-0.11;57.73
75219;BME280;63801;49.414;19.474;2023-04-06T08:21:30;93806.63;;;-0.08;57.54
75219;BME280;63801;49.414;19.474;2023-04-06T08:23:31;93807.47;;;-0.12;57.84
75219;BME280;63801;49.414;19.474;2023-04-06T08:25:35;93803.78;;;-0.16;57.62
75219;BME280;63801;49.414;19.474;2023-04-06T08:27:35;93803.84;;;-0.21;58.00
75219;BME280;63801;49.414;19.474;2023-04-06T08:29:36;93812.34;;;-0.24;57.95
75219;BME280;63801;49.414;19.474;2023-04-06T08:31:36;93801.50;;;-0.23;57.68
75219;BME280;63801;49.414;19.474;2023-04-06T08:33:37;93816.53;;;-0.18;58.25
75219;BME280;63801;49.414;19.474;2023-04-06T08:35:39;93804.06;;;-0.18;58.25
75219;BME280;63801;49.414;19.474;2023-04-06T08:37:39;93807.22;;;-0.16;58.43
75219;BME280;63801;49.414;19.474;2023-04-06T08:39:41;93798.00;;;-0.18;58.26
75219;BME280;63801;49.414;19.474;2023-04-06T08:41:41;93804.84;;;-0.17;58.17
75219;BME280;63801;49.414;19.474;2023-04-06T08:43:46;93801.72;;;-0.19;58.04
75219;BME280;63801;49.414;19.474;2023-04-06T08:45:48;93795.09;;;-0.22;58.43
75219;BME280;63801;49.414;19.474;2023-04-06T08:47:50;93798.59;;;-0.26;58.00
75219;BME280;63801;49.414;19.474;2023-04-06T08:49:52;93798.84;;;-0.23;58.56
75219;BME280;63801;49.414;19.474;2023-04-06T08:51:53;93777.13;;;-0.25;58.47
75219;BME280;63801;49.414;19.474;2023-04-06T08:53:56;93791.56;;;-0.12;58.71
75219;BME280;63801;49.414;19.474;2023-04-06T08:55:58;93794.22;;;-0.12;58.51
75219;BME280;63801;49.414;19.474;2023-04-06T08:58:00;93779.94;;;-0.16;58.53
75219;BME280;63801;49.414;19.474;2023-04-06T09:00:00;93793.59;;;-0.04;58.72
75219;BME280;63801;49.414;19.474;2023-04-06T09:02:03;93799.06;;;0.05;58.54
75219;BME280;63801;49.414;19.474;2023-04-06T09:04:04;93790.78;;;0.11;58.33
75219;BME280;63801;49.414;19.474;2023-04-06T09:06:09;93785.22;;;0.13;58.50
75219;BME280;63801;49.414;19.474;2023-04-06T09:08:10;93782.00;;;0.16;58.32
75219;BME280;63801;49.414;19.474;2023-04-06T09:10:11;93781.16;;;0.20;58.28
75219;BME280;63801;49.414;19.474;2023-04-06T09:12:24;93786.09;;;0.27;58.18
75219;BME280;63801;49.414;19.474;2023-04-06T09:14:38;93777.38;;;0.26;57.99
75219;BME280;63801;49.414;19.474;2023-04-06T09:16:43;93780.97;;;0.35;58.13
75219;BME280;63801;49.414;19.474;2023-04-06T09:18:45;93780.91;;;0.40;58.18
75219;BME280;63801;49.414;19.474;2023-04-06T09:21:05;93786.72;;;0.42;57.71
75219;BME280;63801;49.414;19.474;2023-04-06T09:23:06;93787.72;;;0.47;58.09
75219;BME280;63801;49.414;19.474;2023-04-06T09:25:09;93780.72;;;0.56;57.94
75219;BME280;63801;49.414;19.474;2023-04-06T09:27:11;93782.38;;;0.70;58.29
75219;BME280;63801;49.414;19.474;2023-04-06T09:29:22;93772.63;;;0.84;58.20
75219;BME280;63801;49.414;19.474;2023-04-06T09:31:25;93772.69;;;0.98;58.15
75219;BME280;63801;49.414;19.474;2023-04-06T09:33:25;93768.31;;;1.07;58.25
75219;BME280;63801;49.414;19.474;2023-04-06T09:35:26;93764.91;;;1.20;58.32
75219;BME280;63801;49.414;19.474;2023-04-06T09:37:27;93756.63;;;1.41;58.25
75219;BME280;63801;49.414;19.474;2023-04-06T09:39:28;93757.16;;;1.56;58.14
75219;BME280;63801;49.414;19.474;2023-04-06T09:41:29;93743.91;;;1.70;58.28
75219;BME280;63801;49.414;19.474;2023-04-06T09:43:30;93758.31;;;1.96;57.84
75219;BME280;63801;49.414;19.474;2023-04-06T09:45:31;93758.31;;;2.10;57.45
75219;BME280;63801;49.414;19.474;2023-04-06T09:47:32;93751.31;;;2.14;57.38
75219;BME280;63801;49.414;19.474;2023-04-06T09:49:33;93754.41;;;2.21;56.77
75219;BME280;63801;49.414;19.474;2023-04-06T09:51:44;93754.28;;;2.26;57.08
75219;BME280;63801;49.414;19.474;2023-04-06T09:53:50;93750.84;;;2.25;56.79
75219;BME280;63801;49.414;19.474;2023-04-06T09:55:55;93756.66;;;2.28;57.05
75219;BME280;63801;49.414;19.474;2023-04-06T09:58:04;93758.84;;;2.25;56.29
75219;BME280;63801;49.414;19.474;2023-04-06T10:00:06;93763.34;;;2.11;55.46
75219;BME280;63801;49.414;19.474;2023-04-06T10:02:55;93760.75;;;1.79;55.68
75219;BME280;63801;49.414;19.474;2023-04-06T10:07:17;93761.59;;;1.61;56.40
75219;BME280;63801;49.414;19.474;2023-04-06T10:09:22;93748.91;;;1.58;56.39
75219;BME280;63801;49.414;19.474;2023-04-06T10:11:25;93763.31;;;1.70;56.43
75219;BME280;63801;49.414;19.474;2023-04-06T10:13:26;93766.75;;;1.71;56.55
75219;BME280;63801;49.414;19.474;2023-04-06T10:15:29;93762.50;;;1.70;56.41
75219;BME280;63801;49.414;19.474;2023-04-06T10:17:30;93767.13;;;1.64;56.16
75219;BME280;63801;49.414;19.474;2023-04-06T10:19:46;93765.84;;;1.62;56.10
75219;BME280;63801;49.414;19.474;2023-04-06T10:21:51;93762.88;;;1.50;56.18
75219;BME280;63801;49.414;19.474;2023-04-06T10:24:01;93765.53;;;1.50;56.40
75219;BME280;63801;49.414;19.474;2023-04-06T10:26:03;93764.59;;;1.41;56.72
75219;BME280;63801;49.414;19.474;2023-04-06T10:28:08;93770.31;;;1.48;56.86
75219;BME280;63801;49.414;19.474;2023-04-06T10:30:09;93771.63;;;1.50;57.13
75219;BME280;63801;49.414;19.474;2023-04-06T10:32:10;93766.00;;;1.52;57.56
75219;BME280;63801;49.414;19.474;2023-04-06T10:34:10;93767.50;;;1.58;57.56
75219;BME280;63801;49.414;19.474;2023-04-06T10:36:15;93763.09;;;1.67;57.72
75219;BME280;63801;49.414;19.474;2023-04-06T10:38:33;93745.38;;;1.62;57.46